sensor_id;sensor_type;location;lat;lon;timestamp;pressure;altitude;pressure_sealevel;temperature;humidity
21879;BME280;27908;42.708;23.278;2023-05-09T00:00:16;63912.09;;;12.24;100.00
21879;BME280;27908;42.708;23.278;2023-05-09T00:02:41;63882.28;;;12.06;100.00
21879;BME280;27908;42.708;23.278;2023-05-09T00:05:10;63895.16;;;12.18;100.00
21879;BME280;27908;42.708;23.278;2023-05-09T00:07:35;63898.22;;;12.16;100.00
21879;BME280;27908;42.708;23.278;2023-05-09T00:10:00;63917.66;;;12.20;100.00
21879;BME280;27908;42.708;23.278;2023-05-09T00:12:27;63895.53;;;12.04;100.00
21879;BME280;27908;42.708;23.278;2023-05-09T00:14:53;63916.59;;;12.16;100.00
21879;BME280;27908;42.708;23.278;2023-05-09T00:17:23;63892.59;;;12.15;100.00
21879;BME280;27908;42.708;23.278;2023-05-09T00:19:49;63886.53;;;12.24;100.00
21879;BME280;27908;42.708;23.278;2023-05-09T00:22:16;63887.53;;;12.20;100.00
21879;BME280;27908;42.708;23.278;2023-05-09T00:24:42;63904.41;;;12.22;100.00
21879;BME280;27908;42.708;23.278;2023-05-09T00:27:07;63905.91;;;12.18;100.00
21879;BME280;27908;42.708;23.278;2023-05-09T00:29:32;63913.03;;;12.15;100.00
21879;BME280;27908;42.708;23.278;2023-05-09T00:31:58;63874.66;;;12.10;100.00
21879;BME280;27908;42.708;23.278;2023-05-09T00:34:23;63894.19;;;12.22;100.00
21879;BME280;27908;42.708;23.278;2023-05-09T00:36:49;63937.03;;;12.16;100.00
21879;BME280;27908;42.708;23.278;2023-05-09T00:39:14;63892.69;;;12.25;100.00
21879;BME280;27908;42.708;23.278;2023-05-09T00:41:40;63931.03;;;12.28;100.00
21879;BME280;27908;42.708;23.278;2023-05-09T00:44:06;63904.91;;;12.20;100.00
21879;BME280;27908;42.708;23.278;2023-05-09T00:46:31;63889.63;;;12.25;100.00
21879;BME280;27908;42.708;23.278;2023-05-09T00:48:57;63925.94;;;12.30;100.00
21879;BME280;27908;42.708;23.278;2023-05-09T00:51:23;63929.56;;;12.34;100.00
21879;BME280;27908;42.708;23.278;2023-05-09T00:53:48;63930.09;;;12.37;100.00
21879;BME280;27908;42.708;23.278;2023-05-09T00:56:14;63916.84;;;12.39;100.00
21879;BME280;27908;42.708;23.278;2023-05-09T00:58:39;63889.75;;;12.40;100.00
21879;BME280;27908;42.708;23.278;2023-05-09T01:01:05;63928.69;;;12.47;100.00
21879;BME280;27908;42.708;23.278;2023-05-09T01:03:31;63925.09;;;12.46;100.00
21879;BME280;27908;42.708;23.278;2023-05-09T01:06:14;63953.81;;;12.57;100.00
21879;BME280;27908;42.708;23.278;2023-05-09T01:09:08;63941.59;;;12.60;100.00
21879;BME280;27908;42.708;23.278;2023-05-09T01:11:53;63975.91;;;12.66;100.00
21879;BME280;27908;42.708;23.278;2023-05-09T01:20:32;63952.44;;;12.73;100.00
21879;BME280;27908;42.708;23.278;2023-05-09T01:30:54;63990.97;;;12.87;100.00
21879;BME280;27908;42.708;23.278;2023-05-09T01:33:20;63997.13;;;12.86;100.00
21879;BME280;27908;42.708;23.278;2023-05-09T01:36:03;64002.78;;;12.91;100.00
21879;BME280;27908;42.708;23.278;2023-05-09T01:38:30;64022.22;;;12.90;100.00
21879;BME280;27908;42.708;23.278;2023-05-09T01:40:57;63985.41;;;12.92;100.00
21879;BME280;27908;42.708;23.278;2023-05-09T01:43:26;64023.22;;;12.89;100.00
21879;BME280;27908;42.708;23.278;2023-05-09T01:45:52;64055.56;;;12.98;100.00
21879;BME280;27908;42.708;23.278;2023-05-09T01:48:20;64003.59;;;12.73;100.00
21879;BME280;27908;42.708;23.278;2023-05-09T01:50:46;63950.34;;;12.66;100.00
21879;BME280;27908;42.708;23.278;2023-05-09T01:53:14;64019.66;;;12.88;100.00
21879;BME280;27908;42.708;23.278;2023-05-09T01:55:41;64001.03;;;12.70;100.00
21879;BME280;27908;42.708;23.278;2023-05-09T01:58:08;63990.50;;;12.89;100.00
21879;BME280;27908;42.708;23.278;2023-05-09T02:00:35;63987.84;;;12.80;100.00
21879;BME280;27908;42.708;23.278;2023-05-09T02:03:01;63988.94;;;12.88;100.00
21879;BME280;27908;42.708;23.278;2023-05-09T02:05:29;64012.41;;;12.81;100.00
21879;BME280;27908;42.708;23.278;2023-05-09T02:07:56;64030.50;;;12.98;100.00
21879;BME280;27908;42.708;23.278;2023-05-09T02:10:22;64025.75;;;12.84;100.00
21879;BME280;27908;42.708;23.278;2023-05-09T02:12:50;64054.72;;;13.14;100.00
21879;BME280;27908;42.708;23.278;2023-05-09T02:15:15;64053.22;;;13.17;100.00
21879;BME280;27908;42.708;23.278;2023-05-09T02:17:41;64024.03;;;13.16;100.00
21879;BME280;27908;42.708;23.278;2023-05-09T02:20:07;64009.53;;;12.98;100.00
21879;BME280;27908;42.708;23.278;2023-05-09T02:22:34;63968.34;;;12.76;100.00
21879;BME280;27908;42.708;23.278;2023-05-09T02:25:01;64018.63;;;12.89;100.00
21879;BME280;27908;42.708;23.278;2023-05-09T02:27:30;63983.69;;;12.76;100.00
21879;BME280;27908;42.708;23.278;2023-05-09T02:29:57;64019.66;;;12.88;100.00
21879;BME280;27908;42.708;23.278;2023-05-09T02:32:28;64030.84;;;12.84;100.00
21879;BME280;27908;42.708;23.278;2023-05-09T02:34:54;63998.09;;;12.82;100.00
21879;BME280;27908;42.708;23.278;2023-05-09T02:37:23;63973.56;;;12.85;100.00
21879;BME280;27908;42.708;23.278;2023-05-09T02:39:48;63985.28;;;12.80;100.00
21879;BME280;27908;42.708;23.278;2023-05-09T02:42:21;63980.75;;;12.87;100.00
21879;BME280;27908;42.708;23.278;2023-05-09T02:44:49;64012.56;;;12.96;100.00
21879;BME280;27908;42.708;23.278;2023-05-09T02:47:15;64058.63;;;12.96;100.00
21879;BME280;27908;42.708;23.278;2023-05-09T02:49:40;64027.88;;;12.93;100.00
21879;BME280;27908;42.708;23.278;2023-05-09T02:52:05;64041.75;;;12.99;100.00
21879;BME280;27908;42.708;23.278;2023-05-09T02:54:31;64023.34;;;12.99;100.00
21879;BME280;27908;42.708;23.278;2023-05-09T02:56:56;64047.91;;;12.98;100.00
21879;BME280;27908;42.708;23.278;2023-05-09T02:59:25;64032.47;;;12.93;100.00
21879;BME280;27908;42.708;23.278;2023-05-09T03:01:50;64008.34;;;12.84;100.00
21879;BME280;27908;42.708;23.278;2023-05-09T03:04:16;63992.97;;;12.82;100.00
21879;BME280;27908;42.708;23.278;2023-05-09T03:06:42;64001.06;;;12.75;100.00
21879;BME280;27908;42.708;23.278;2023-05-09T03:09:08;63984.13;;;12.69;100.00
21879;BME280;27908;42.708;23.278;2023-05-09T03:11:34;63969.75;;;12.65;100.00
21879;BME280;27908;42.708;23.278;2023-05-09T03:14:01;63960.38;;;12.48;100.00
21879;BME280;27908;42.708;23.278;2023-05-09T03:16:26;63941.91;;;12.41;100.00
21879;BME280;27908;42.708;23.278;2023-05-09T03:18:52;63932.66;;;12.37;100.00
21879;BME280;27908;42.708;23.278;2023-05-09T03:21:17;63939.78;;;12.31;100.00
21879;BME280;27908;42.708;23.278;2023-05-09T03:23:42;63923.91;;;12.31;100.00
21879;BME280;27908;42.708;23.278;2023-05-09T03:26:08;63933.16;;;12.35;100.00
21879;BME280;27908;42.708;23.278;2023-05-09T03:28:33;63930.56;;;12.32;100.00
21879;BME280;27908;42.708;23.278;2023-05-09T03:30:59;63938.75;;;12.33;100.00
21879;BME280;27908;42.708;23.278;2023-05-09T03:33:24;63941.34;;;12.35;100.00
21879;BME280;27908;42.708;23.278;2023-05-09T03:35:50;63928.13;;;12.44;100.00
21879;BME280;27908;42.708;23.278;2023-05-09T03:38:15;63936.94;;;12.55;100.00
21879;BME280;27908;42.708;23.278;2023-05-09T03:40:41;63990.09;;;12.52;100.00
21879;BME280;27908;42.708;23.278;2023-05-09T03:43:06;63973.31;;;12.61;100.00
21879;BME280;27908;42.708;23.278;2023-05-09T03:45:31;63978.47;;;12.66;100.00
21879;BME280;27908;42.708;23.278;2023-05-09T03:47:57;64005.13;;;12.72;100.00
21879;BME280;27908;42.708;23.278;2023-05-09T03:50:23;63988.22;;;12.68;100.00
21879;BME280;27908;42.708;23.278;2023-05-09T03:52:48;63985.66;;;12.68;100.00
21879;BME280;27908;42.708;23.278;2023-05-09T03:55:15;63998.50;;;12.75;100.00
21879;BME280;27908;42.708;23.278;2023-05-09T03:57:40;64008.81;;;12.80;100.00
21879;BME280;27908;42.708;23.278;2023-05-09T04:00:06;63997.06;;;12.81;100.00
21879;BME280;27908;42.708;23.278;2023-05-09T04:02:32;64038.50;;;12.81;100.00
21879;BME280;27908;42.708;23.278;2023-05-09T04:04:59;64007.88;;;12.89;100.00
21879;BME280;27908;42.708;23.278;2023-05-09T04:07:25;64009.03;;;13.02;100.00
21879;BME280;27908;42.708;23.278;2023-05-09T04:09:50;64009.59;;;13.05;100.00
21879;BME280;27908;42.708;23.278;2023-05-09T04:12:16;64006.09;;;13.14;100.00
21879;BME280;27908;42.708;23.278;2023-05-09T04:14:41;64059.84;;;13.14;100.00
21879;BME280;27908;42.708;23.278;2023-05-09T04:17:07;64051.72;;;13.23;100.00
21879;BME280;27908;42.708;23.278;2023-05-09T04:19:33;64083.50;;;13.27;100.00
21879;BME280;27908;42.708;23.278;2023-05-09T04:21:58;64068.75;;;13.35;100.00
21879;BME280;27908;42.708;23.278;2023-05-09T04:24:23;64057.91;;;13.24;100.00
21879;BME280;27908;42.708;23.278;2023-05-09T04:26:49;64135.97;;;13.50;100.00
21879;BME280;27908;42.708;23.278;2023-05-09T04:29:15;64053.97;;;13.43;100.00
21879;BME280;27908;42.708;23.278;2023-05-09T04:31:40;64122.16;;;13.49;100.00
21879;BME280;27908;42.708;23.278;2023-05-09T04:34:05;64122.78;;;13.59;100.00
21879;BME280;27908;42.708;23.278;2023-05-09T04:36:31;64145.75;;;13.54;100.00
21879;BME280;27908;42.708;23.278;2023-05-09T04:38:58;64095.13;;;13.62;100.00
21879;BME280;27908;42.708;23.278;2023-05-09T04:41:23;64126.28;;;13.51;100.00
21879;BME280;27908;42.708;23.278;2023-05-09T04:43:49;64114.63;;;13.64;100.00
21879;BME280;27908;42.708;23.278;2023-05-09T04:46:14;64144.75;;;13.56;100.00
21879;BME280;27908;42.708;23.278;2023-05-09T04:48:40;64114.16;;;13.71;100.00
21879;BME280;27908;42.708;23.278;2023-05-09T04:51:05;64084.22;;;13.47;100.00
21879;BME280;27908;42.708;23.278;2023-05-09T04:53:31;64103.28;;;13.58;100.00
21879;BME280;27908;42.708;23.278;2023-05-09T04:55:58;64124.81;;;13.59;100.00
21879;BME280;27908;42.708;23.278;2023-05-09T04:58:23;64096.91;;;13.35;100.00
21879;BME280;27908;42.708;23.278;2023-05-09T05:00:51;64137.81;;;13.79;100.00
21879;BME280;27908;42.708;23.278;2023-05-09T05:03:17;64187.47;;;13.75;100.00
21879;BME280;27908;42.708;23.278;2023-05-09T05:05:42;64141.41;;;13.77;100.00
21879;BME280;27908;42.708;23.278;2023-05-09T05:08:08;64154.34;;;13.92;100.00
21879;BME280;27908;42.708;23.278;2023-05-09T05:10:33;64171.25;;;13.91;100.00
21879;BME280;27908;42.708;23.278;2023-05-09T05:12:58;64202.56;;;13.96;100.00
21879;BME280;27908;42.708;23.278;2023-05-09T05:15:24;64218.72;;;14.19;100.00
21879;BME280;27908;42.708;23.278;2023-05-09T05:17:51;64225.78;;;14.09;100.00
21879;BME280;27908;42.708;23.278;2023-05-09T05:20:16;64231.53;;;14.19;100.00
21879;BME280;27908;42.708;23.278;2023-05-09T05:22:42;64184.78;;;14.09;100.00
21879;BME280;27908;42.708;23.278;2023-05-09T05:25:07;64231.06;;;14.21;100.00
21879;BME280;27908;42.708;23.278;2023-05-09T05:27:33;64231.00;;;14.14;100.00
21879;BME280;27908;42.708;23.278;2023-05-09T05:29:58;64246.53;;;14.31;100.00
21879;BME280;27908;42.708;23.278;2023-05-09T05:32:24;64383.91;;;14.25;100.00
21879;BME280;27908;42.708;23.278;2023-05-09T05:34:49;64208.56;;;14.29;100.00
21879;BME280;27908;42.708;23.278;2023-05-09T05:37:15;64269.81;;;14.48;100.00
21879;BME280;27908;42.708;23.278;2023-05-09T05:39:40;64247.88;;;14.61;100.00
21879;BME280;27908;42.708;23.278;2023-05-09T05:42:05;64286.31;;;14.54;100.00
21879;BME280;27908;42.708;23.278;2023-05-09T05:44:31;64298.28;;;14.70;100.00
21879;BME280;27908;42.708;23.278;2023-05-09T05:46:56;64345.72;;;14.91;100.00
21879;BME280;27908;42.708;23.278;2023-05-09T05:49:22;64328.72;;;14.87;100.00
21879;BME280;27908;42.708;23.278;2023-05-09T05:51:49;64324.31;;;15.07;100.00
21879;BME280;27908;42.708;23.278;2023-05-09T05:54:15;64323.63;;;14.92;100.00
21879;BME280;27908;42.708;23.278;2023-05-09T05:56:40;64367.38;;;15.02;99.50
21879;BME280;27908;42.708;23.278;2023-05-09T05:59:06;64344.03;;;14.80;99.76
21879;BME280;27908;42.708;23.278;2023-05-09T06:01:31;64355.28;;;14.76;100.00
21879;BME280;27908;42.708;23.278;2023-05-09T06:03:57;64270.66;;;14.78;100.00
21879;BME280;27908;42.708;23.278;2023-05-09T06:06:22;64341.00;;;14.84;98.99
21879;BME280;27908;42.708;23.278;2023-05-09T06:08:48;64364.31;;;15.04;99.40
21879;BME280;27908;42.708;23.278;2023-05-09T06:11:14;64380.38;;;15.14;99.09
21879;BME280;27908;42.708;23.278;2023-05-09T06:13:40;64412.97;;;15.35;97.81
21879;BME280;27908;42.708;23.278;2023-05-09T06:16:06;64373.28;;;15.22;97.99
21879;BME280;27908;42.708;23.278;2023-05-09T06:18:33;64418.66;;;15.41;99.08
21879;BME280;27908;42.708;23.278;2023-05-09T06:20:59;64405.94;;;15.51;97.66
21879;BME280;27908;42.708;23.278;2023-05-09T06:23:25;64468.66;;;15.54;92.48
21879;BME280;27908;42.708;23.278;2023-05-09T06:25:50;64502.31;;;15.74;92.96
21879;BME280;27908;42.708;23.278;2023-05-09T06:28:16;64532.63;;;15.73;91.40
21879;BME280;27908;42.708;23.278;2023-05-09T06:30:41;64570.25;;;16.24;90.45
21879;BME280;27908;42.708;23.278;2023-05-09T06:33:06;64575.53;;;16.36;88.65
21879;BME280;27908;42.708;23.278;2023-05-09T06:35:32;64612.28;;;16.54;87.27
21879;BME280;27908;42.708;23.278;2023-05-09T06:37:58;64637.06;;;16.63;88.50
21879;BME280;27908;42.708;23.278;2023-05-09T06:40:23;64667.06;;;16.74;84.80
21879;BME280;27908;42.708;23.278;2023-05-09T06:42:49;64580.78;;;16.46;84.60
21879;BME280;27908;42.708;23.278;2023-05-09T06:45:14;64548.06;;;16.20;87.59
21879;BME280;27908;42.708;23.278;2023-05-09T06:47:39;64586.44;;;16.46;87.69
21879;BME280;27908;42.708;23.278;2023-05-09T06:50:05;64629.34;;;16.63;89.00
21879;BME280;27908;42.708;23.278;2023-05-09T06:52:31;64600.59;;;16.67;85.21
21879;BME280;27908;42.708;23.278;2023-05-09T06:54:56;64615.47;;;16.64;87.78
21879;BME280;27908;42.708;23.278;2023-05-09T06:57:22;64580.44;;;16.63;86.28
21879;BME280;27908;42.708;23.278;2023-05-09T06:59:47;64639.56;;;16.55;86.27
21879;BME280;27908;42.708;23.278;2023-05-09T07:02:13;64619.19;;;16.75;86.04
21879;BME280;27908;42.708;23.278;2023-05-09T07:04:38;64671.28;;;16.83;84.77
21879;BME280;27908;42.708;23.278;2023-05-09T07:07:04;64594.47;;;16.73;85.27
21879;BME280;27908;42.708;23.278;2023-05-09T07:09:30;64682.53;;;16.74;85.76
21879;BME280;27908;42.708;23.278;2023-05-09T07:11:55;64641.78;;;16.67;84.40
21879;BME280;27908;42.708;23.278;2023-05-09T07:14:21;64630.00;;;16.73;83.60
21879;BME280;27908;42.708;23.278;2023-05-09T07:16:46;64549.31;;;16.38;84.83
21879;BME280;27908;42.708;23.278;2023-05-09T07:19:11;64593.03;;;16.36;86.79
21879;BME280;27908;42.708;23.278;2023-05-09T07:21:37;64599.81;;;16.44;86.58
21879;BME280;27908;42.708;23.278;2023-05-09T07:24:02;64590.91;;;16.31;83.74
21879;BME280;27908;42.708;23.278;2023-05-09T07:26:28;64591.38;;;16.27;85.24
21879;BME280;27908;42.708;23.278;2023-05-09T07:28:54;64651.34;;;16.10;86.29
21879;BME280;27908;42.708;23.278;2023-05-09T07:31:19;64578.00;;;16.26;85.79
21879;BME280;27908;42.708;23.278;2023-05-09T07:33:45;64553.31;;;16.27;82.64
21879;BME280;27908;42.708;23.278;2023-05-09T07:36:10;64525.38;;;16.15;85.16
21879;BME280;27908;42.708;23.278;2023-05-09T07:38:38;64567.13;;;16.21;84.27
21879;BME280;27908;42.708;23.278;2023-05-09T07:41:04;64534.31;;;16.31;86.73
21879;BME280;27908;42.708;23.278;2023-05-09T07:43:29;64572.50;;;16.40;86.82
21879;BME280;27908;42.708;23.278;2023-05-09T07:45:55;64599.97;;;16.57;85.78
21879;BME280;27908;42.708;23.278;2023-05-09T07:48:20;64676.84;;;16.73;85.98
21879;BME280;27908;42.708;23.278;2023-05-09T07:50:45;64705.31;;;16.86;84.58
21879;BME280;27908;42.708;23.278;2023-05-09T07:53:11;64661.53;;;16.83;84.93
21879;BME280;27908;42.708;23.278;2023-05-09T07:55:36;64643.03;;;16.90;84.83
21879;BME280;27908;42.708;23.278;2023-05-09T07:58:02;64662.56;;;16.87;83.73
21879;BME280;27908;42.708;23.278;2023-05-09T08:00:27;64678.41;;;16.75;80.39
21879;BME280;27908;42.708;23.278;2023-05-09T08:02:53;64600.38;;;16.50;82.89
21879;BME280;27908;42.708;23.278;2023-05-09T08:05:18;64624.50;;;16.43;85.09
21879;BME280;27908;42.708;23.278;2023-05-09T08:07:44;64526.50;;;16.24;84.29
21879;BME280;27908;42.708;23.278;2023-05-09T08:10:10;64588.28;;;16.26;84.86
21879;BME280;27908;42.708;23.278;2023-05-09T08:12:36;64640.06;;;16.53;84.83
21879;BME280;27908;42.708;23.278;2023-05-09T08:15:01;64637.19;;;16.73;80.16
21879;BME280;27908;42.708;23.278;2023-05-09T08:17:27;64692.00;;;16.93;82.02
21879;BME280;27908;42.708;23.278;2023-05-09T08:19:52;64712.69;;;16.98;80.90
21879;BME280;27908;42.708;23.278;2023-05-09T08:22:18;64653.06;;;16.66;81.83
21879;BME280;27908;42.708;23.278;2023-05-09T08:24:45;64727.09;;;16.99;83.62
21879;BME280;27908;42.708;23.278;2023-05-09T08:27:11;64728.94;;;17.23;81.24
21879;BME280;27908;42.708;23.278;2023-05-09T08:29:38;64796.34;;;17.57;79.05
21879;BME280;27908;42.708;23.278;2023-05-09T08:32:04;64893.41;;;18.05;80.31
21879;BME280;27908;42.708;23.278;2023-05-09T08:34:29;64927.13;;;18.17;77.30
21879;BME280;27908;42.708;23.278;2023-05-09T08:37:02;64941.88;;;18.44;76.64
21879;BME280;27908;42.708;23.278;2023-05-09T08:39:31;64959.34;;;18.36;75.92
21879;BME280;27908;42.708;23.278;2023-05-09T08:41:59;64978.28;;;18.24;75.94
21879;BME280;27908;42.708;23.278;2023-05-09T08:44:27;64894.59;;;18.18;76.23
21879;BME280;27908;42.708;23.278;2023-05-09T08:46:59;64817.19;;;17.75;77.03
21879;BME280;27908;42.708;23.278;2023-05-09T08:49:25;64683.88;;;17.02;77.38
21879;BME280;27908;42.708;23.278;2023-05-09T08:51:52;64686.50;;;17.07;81.15
21879;BME280;27908;42.708;23.278;2023-05-09T08:54:18;64763.00;;;17.26;77.71
21879;BME280;27908;42.708;23.278;2023-05-09T08:56:44;64783.69;;;17.33;78.12
21879;BME280;27908;42.708;23.278;2023-05-09T08:59:09;64733.81;;;17.42;75.04
21879;BME280;27908;42.708;23.278;2023-05-09T09:01:35;64688.81;;;16.85;75.04
21879;BME280;27908;42.708;23.278;2023-05-09T09:04:07;64592.69;;;16.52;76.52
21879;BME280;27908;42.708;23.278;2023-05-09T09:06:34;64602.91;;;16.45;79.11
21879;BME280;27908;42.708;23.278;2023-05-09T09:09:00;64642.22;;;16.63;79.76
21879;BME280;27908;42.708;23.278;2023-05-09T09:11:27;64613.13;;;16.40;77.19
21879;BME280;27908;42.708;23.278;2023-05-09T09:13:53;64608.53;;;16.40;78.81
21879;BME280;27908;42.708;23.278;2023-05-09T09:16:24;64603.41;;;16.43;76.49
21879;BME280;27908;42.708;23.278;2023-05-09T09:18:51;64605.88;;;16.36;80.60
21879;BME280;27908;42.708;23.278;2023-05-09T09:21:19;64595.06;;;16.33;80.47
21879;BME280;27908;42.708;23.278;2023-05-09T09:23:45;64523.44;;;16.23;80.03
21879;BME280;27908;42.708;23.278;2023-05-09T09:26:14;64612.16;;;16.44;77.54
21879;BME280;27908;42.708;23.278;2023-05-09T09:28:40;64594.56;;;16.35;78.17
21879;BME280;27908;42.708;23.278;2023-05-09T09:31:25;64539.09;;;16.01;78.54
21879;BME280;27908;42.708;23.278;2023-05-09T09:33:51;64590.00;;;16.42;78.14
21879;BME280;27908;42.708;23.278;2023-05-09T09:36:27;64638.13;;;16.64;78.29
21879;BME280;27908;42.708;23.278;2023-05-09T09:38:58;64676.91;;;16.78;78.70
21879;BME280;27908;42.708;23.278;2023-05-09T09:41:38;64645.78;;;16.59;75.72
21879;BME280;27908;42.708;23.278;2023-05-09T09:44:11;64606.69;;;16.17;77.37
21879;BME280;27908;42.708;23.278;2023-05-09T09:46:41;64558.84;;;16.18;78.15
21879;BME280;27908;42.708;23.278;2023-05-09T09:49:13;64531.53;;;16.14;78.79
21879;BME280;27908;42.708;23.278;2023-05-09T09:51:40;64509.81;;;16.03;80.35
21879;BME280;27908;42.708;23.278;2023-05-09T09:54:06;64494.72;;;15.86;80.85
21879;BME280;27908;42.708;23.278;2023-05-09T09:56:44;64510.94;;;16.11;80.80
21879;BME280;27908;42.708;23.278;2023-05-09T09:59:16;64613.63;;;16.38;81.27
21879;BME280;27908;42.708;23.278;2023-05-09T10:02:11;64553.78;;;16.23;80.85
21879;BME280;27908;42.708;23.278;2023-05-09T10:04:37;64550.59;;;16.15;81.72
21879;BME280;27908;42.708;23.278;2023-05-09T10:07:07;64593.97;;;16.29;83.15
21879;BME280;27908;42.708;23.278;2023-05-09T10:09:35;64635.44;;;16.54;81.29
21879;BME280;27908;42.708;23.278;2023-05-09T10:12:06;64620.16;;;16.69;81.59
21879;BME280;27908;42.708;23.278;2023-05-09T10:14:34;64709.59;;;17.00;83.46
21879;BME280;27908;42.708;23.278;2023-05-09T10:17:02;64776.78;;;17.58;76.25
21879;BME280;27908;42.708;23.278;2023-05-09T10:19:29;64823.47;;;17.81;78.31
21879;BME280;27908;42.708;23.278;2023-05-09T10:21:58;64944.28;;;18.29;76.02
21879;BME280;27908;42.708;23.278;2023-05-09T10:27:09;65137.38;;;19.40;74.83
21879;BME280;27908;42.708;23.278;2023-05-09T10:29:43;65238.47;;;19.92;68.42
21879;BME280;27908;42.708;23.278;2023-05-09T10:32:22;65288.63;;;19.88;67.69
21879;BME280;27908;42.708;23.278;2023-05-09T10:34:53;65326.25;;;20.13;65.48
21879;BME280;27908;42.708;23.278;2023-05-09T10:37:20;65369.53;;;20.34;65.39
21879;BME280;27908;42.708;23.278;2023-05-09T10:39:46;65284.81;;;20.13;66.43
21879;BME280;27908;42.708;23.278;2023-05-09T10:42:17;65315.47;;;20.20;63.66
21879;BME280;27908;42.708;23.278;2023-05-09T10:44:45;65254.41;;;19.85;64.94
21879;BME280;27908;42.708;23.278;2023-05-09T10:49:58;65165.06;;;19.59;66.27
21879;BME280;27908;42.708;23.278;2023-05-09T10:52:23;65130.41;;;19.19;68.31
21879;BME280;27908;42.708;23.278;2023-05-09T10:54:57;65076.47;;;19.05;66.83
21879;BME280;27908;42.708;23.278;2023-05-09T10:57:25;64954.44;;;18.58;71.07
21879;BME280;27908;42.708;23.278;2023-05-09T10:59:51;64920.09;;;18.35;71.96
21879;BME280;27908;42.708;23.278;2023-05-09T11:02:18;64982.25;;;18.52;71.49
21879;BME280;27908;42.708;23.278;2023-05-09T11:04:45;65022.25;;;18.71;72.34
21879;BME280;27908;42.708;23.278;2023-05-09T11:07:24;64984.31;;;18.52;69.95
21879;BME280;27908;42.708;23.278;2023-05-09T11:10:14;65030.63;;;18.79;70.24
21879;BME280;27908;42.708;23.278;2023-05-09T11:12:57;64995.31;;;18.65;69.17
21879;BME280;27908;42.708;23.278;2023-05-09T11:15:23;65056.19;;;18.98;67.04
21879;BME280;27908;42.708;23.278;2023-05-09T11:18:09;65118.09;;;19.27;68.47
21879;BME280;27908;42.708;23.278;2023-05-09T11:20:35;65114.75;;;19.09;68.47
21879;BME280;27908;42.708;23.278;2023-05-09T11:23:07;65088.44;;;19.14;67.41
21879;BME280;27908;42.708;23.278;2023-05-09T11:25:32;65048.00;;;19.02;70.28
21879;BME280;27908;42.708;23.278;2023-05-09T11:28:00;65151.75;;;19.29;69.96
21879;BME280;27908;42.708;23.278;2023-05-09T11:30:41;65244.13;;;19.90;69.06
21879;BME280;27908;42.708;23.278;2023-05-09T11:33:23;65237.41;;;19.91;65.61
21879;BME280;27908;42.708;23.278;2023-05-09T11:36:21;65276.75;;;19.91;65.81
21879;BME280;27908;42.708;23.278;2023-05-09T11:39:02;65259.59;;;19.85;65.39
21879;BME280;27908;42.708;23.278;2023-05-09T11:41:28;65177.56;;;19.66;65.05
21879;BME280;27908;42.708;23.278;2023-05-09T11:43:54;65074.59;;;19.23;65.19
21879;BME280;27908;42.708;23.278;2023-05-09T11:46:21;65072.31;;;19.06;66.23
21879;BME280;27908;42.708;23.278;2023-05-09T11:48:48;65151.22;;;19.29;68.99
21879;BME280;27908;42.708;23.278;2023-05-09T11:51:17;65221.34;;;19.51;66.41
21879;BME280;27908;42.708;23.278;2023-05-09T11:53:44;65211.69;;;19.64;66.89
21879;BME280;27908;42.708;23.278;2023-05-09T11:56:11;65164.00;;;19.58;65.92
21879;BME280;27908;42.708;23.278;2023-05-09T11:58:38;65062.69;;;19.21;65.96
21879;BME280;27908;42.708;23.278;2023-05-09T12:01:04;65009.22;;;19.02;67.00
21879;BME280;27908;42.708;23.278;2023-05-09T12:03:30;65108.88;;;19.35;67.17
21879;BME280;27908;42.708;23.278;2023-05-09T12:05:55;65119.66;;;19.28;65.49
21879;BME280;27908;42.708;23.278;2023-05-09T12:08:23;65073.56;;;19.24;68.81
21879;BME280;27908;42.708;23.278;2023-05-09T12:10:49;65134.56;;;19.21;66.87
21879;BME280;27908;42.708;23.278;2023-05-09T12:13:14;65056.75;;;19.01;66.95
21879;BME280;27908;42.708;23.278;2023-05-09T12:15:40;65118.59;;;19.25;67.10
21879;BME280;27908;42.708;23.278;2023-05-09T12:18:06;65024.38;;;18.75;67.13
21879;BME280;27908;42.708;23.278;2023-05-09T12:20:46;64962.09;;;18.51;67.79
21879;BME280;27908;42.708;23.278;2023-05-09T12:23:12;64904.44;;;18.23;69.50
21879;BME280;27908;42.708;23.278;2023-05-09T12:25:52;64875.47;;;18.15;70.15
21879;BME280;27908;42.708;23.278;2023-05-09T12:28:19;64907.56;;;18.23;72.33
21879;BME280;27908;42.708;23.278;2023-05-09T12:30:45;64896.66;;;18.18;70.79
21879;BME280;27908;42.708;23.278;2023-05-09T12:33:11;64847.75;;;17.86;72.54
21879;BME280;27908;42.708;23.278;2023-05-09T12:35:39;64864.91;;;17.98;73.38
21879;BME280;27908;42.708;23.278;2023-05-09T12:38:04;64879.44;;;18.04;73.29
21879;BME280;27908;42.708;23.278;2023-05-09T12:40:30;64851.03;;;18.02;73.97
21879;BME280;27908;42.708;23.278;2023-05-09T12:42:56;64835.78;;;17.78;73.03
21879;BME280;27908;42.708;23.278;2023-05-09T12:45:26;64819.25;;;17.74;71.91
21879;BME280;27908;42.708;23.278;2023-05-09T12:47:52;64782.81;;;17.45;73.05
21879;BME280;27908;42.708;23.278;2023-05-09T12:50:18;64708.13;;;17.06;76.67
21879;BME280;27908;42.708;23.278;2023-05-09T12:52:49;64703.84;;;16.92;77.49
21879;BME280;27908;42.708;23.278;2023-05-09T12:55:15;64651.88;;;16.99;77.40
21879;BME280;27908;42.708;23.278;2023-05-09T12:57:40;64720.34;;;17.37;76.80
21879;BME280;27908;42.708;23.278;2023-05-09T13:00:08;64806.81;;;17.70;74.75
21879;BME280;27908;42.708;23.278;2023-05-09T13:02:35;64759.66;;;17.49;75.86
21879;BME280;27908;42.708;23.278;2023-05-09T13:07:39;64627.88;;;16.69;78.04